Terminal Aerodrome Forecast
Issued by NWS Duluth, MN

Home | Current Version | Previous Version | Text Only | Print | Product List | Glossary On
Versions: 1 2 3 4 5 6 7 8 9 10 11 12 13 14 15 16 17 18 19 20 21
144
FTUS43 KDLH 230538
TAFINL
TAF
KINL 230538Z 2306/2406 23004KT P6SM SCT090 OVC110
     FM231200 28007KT P6SM VCSH BKN015
     FM231600 30012G22KT P6SM VCSH OVC025
     FM240100 31008KT P6SM VCSH OVC015=

USA.gov is the U.S. government's official web portal to all federal, state and local government web resources and services.